HNL weather

Public forecast

Using degrees Fahrenheit for public forecast. Weather courtesy of forecast.io.

Current aviation weather report (METAR) for Daniel K Inouye International Airport

Retrieved 2020/08/15 00:53 UTC (31 minutes ago):

PHNL 150053Z 05010KT 10SM FEW025 FEW045 31/17 A2993

Aviation forecast (TAF) for Daniel K Inouye International Airport

Retrieved 2020-08-15 00:33 UTC (51 minutes ago):

TAF PHNL 142329Z 1500/1606 06012G18KT P6SM FEW025 SCT045 FM150600 05007KT P6SM SCT025 SCT040 FM152000 06012G18KT P6SM FEW025 SCT045